Port Hope, Michigan
Current Conditions -  °F | °C
As of 4:35 AM on Monday 24 Nov 2014 (Local Time) from KBAX Reporting Station
Light Rain Light Rain  
Wind Chill: 52°   Ceiling: 900
Heat Index: 52°   Visibility: 10mi
Dew Point: 52°   Wind: 15mph
Humidity: 100%   Direction: 180°S
Pressure: 29"   Gusts: NA
Location:  43.94°N, 82.71°W
Report Text: KBAX 240935Z AUTO 18013KT 10SM -RA OVC009 11/11 A2900 RMK AO2 T01100110
Loading
Personal Weather Stations






























Interactive Weather Map New forecast layout! Learn more

10-Day Weather Forecast

Advertisements
Track Severe Weather on mobile